Time;durP1;ratioP1;P1;durP2;ratioP2;P2;SDS_P1;SDS_P2;PMS_P1;PMS_P2;Temp;Humidity;BMP_temperature;BMP_pressure;BME280_temperature;BME280_humidity;BME280_pressure;Samples;Min_cycle;Max_cycle;Signal;HPM_P1;HPM_P2
2024/02/21 00:00:13;;;;;;;8.93;2.67;;;10.40;99.90;;;9.79;100.00;102135.19;4167416;28;20026;-73
2024/02/21 00:02:15;;;;;;;11.02;2.95;;;10.40;99.90;;;9.77;100.00;102137.91;4166997;28;20025;-73
2024/02/21 00:04:16;;;;;;;14.07;3.75;;;10.40;99.90;;;9.77;100.00;102134.44;4168687;28;20029;-72
2024/02/21 00:06:16;;;;;;;6.50;2.90;;;10.40;99.90;;;9.76;100.00;102123.09;4168428;28;20021;-72
2024/02/21 00:08:18;;;;;;;10.75;2.92;;;10.40;99.90;;;9.76;100.00;102115.19;4168336;28;20028;-73
2024/02/21 00:10:19;;;;;;;5.88;2.00;;;10.40;99.90;;;9.76;100.00;102123.09;4167170;28;20509;-72
2024/02/21 00:12:20;;;;;;;4.60;1.80;;;10.40;99.90;;;9.77;100.00;102122.13;4168471;28;20036;-73
2024/02/21 00:14:20;;;;;;;5.35;1.88;;;10.40;99.90;;;9.77;100.00;102119.47;4168486;28;20497;-72
2024/02/21 00:16:22;;;;;;;6.80;1.70;;;10.40;99.90;;;9.77;100.00;102106.31;4168366;28;20495;-72
2024/02/21 00:18:23;;;;;;;8.35;2.15;;;10.40;99.90;;;9.78;100.00;102097.44;4166893;28;20080;-72
2024/02/21 00:20:25;;;;;;;11.38;3.00;;;10.40;99.90;;;9.77;100.00;102093.13;4167068;28;20063;-72
2024/02/21 00:22:28;;;;;;;6.88;1.83;;;10.40;99.90;;;9.77;100.00;102114.22;4168388;28;20053;-72
2024/02/21 00:24:29;;;;;;;7.65;1.90;;;10.40;99.90;;;9.73;100.00;102091.69;4167285;28;20511;-73
2024/02/21 00:26:30;;;;;;;17.60;2.92;;;10.40;99.90;;;9.75;100.00;102087.16;4167413;28;20060;-72
2024/02/21 00:28:31;;;;;;;13.73;2.92;;;10.40;99.90;;;9.75;100.00;102076.59;4168308;28;20030;-72
2024/02/21 00:30:32;;;;;;;6.25;1.88;;;10.40;99.90;;;9.73;100.00;102070.63;4166723;28;20025;-72
2024/02/21 00:32:34;;;;;;;8.65;1.90;;;10.40;99.90;;;9.78;100.00;102071.09;4164409;28;20037;-72
2024/02/21 00:34:35;;;;;;;8.85;2.25;;;10.40;99.90;;;9.75;100.00;102066.06;4154449;28;20432;-72
2024/02/21 00:36:36;;;;;;;8.30;1.55;;;10.40;99.90;;;9.78;100.00;102059.72;4169834;28;20085;-72
2024/02/21 00:38:37;;;;;;;9.18;1.50;;;10.40;99.90;;;9.75;100.00;102065.22;4170207;28;20079;-73
2024/02/21 00:40:37;;;;;;;3.08;1.58;;;10.40;99.90;;;9.77;100.00;102048.34;4174369;28;20060;-72
2024/02/21 00:42:38;;;;;;;6.65;1.60;;;10.40;99.90;;;9.79;100.00;102049.06;4171333;28;20025;-72
2024/02/21 00:44:39;;;;;;;5.47;1.67;;;10.40;99.90;;;9.72;100.00;102039.09;4171356;28;20034;-72
2024/02/21 00:46:40;;;;;;;5.60;1.92;;;10.40;99.90;;;9.79;100.00;102045.59;4170877;28;20029;-72
2024/02/21 00:48:41;;;;;;;6.97;1.48;;;10.40;99.90;;;9.77;100.00;102035.16;4170981;28;20041;-72
2024/02/21 00:50:42;;;;;;;3.47;1.67;;;10.40;99.90;;;9.78;100.00;102036.84;4171098;28;20397;-72
2024/02/21 00:52:43;;;;;;;6.65;1.70;;;10.40;99.90;;;9.73;100.00;102028.47;4171249;28;20056;-73
2024/02/21 00:54:44;;;;;;;7.38;1.73;;;10.40;99.90;;;9.78;100.00;102034.22;4169906;28;20029;-73
2024/02/21 00:56:45;;;;;;;4.35;1.25;;;10.40;99.90;;;9.75;100.00;102013.38;4167431;28;20028;-73
2024/02/21 00:58:46;;;;;;;3.92;1.25;;;10.40;99.90;;;9.75;100.00;102017.78;4169896;28;20064;-72
2024/02/21 01:00:46;;;;;;;3.70;1.38;;;10.40;99.90;;;9.73;100.00;102010.03;4167377;28;20041;-72
2024/02/21 01:02:47;;;;;;;10.90;2.92;;;10.30;99.90;;;9.71;100.00;102014.56;4171019;28;20028;-72
2024/02/21 01:04:48;;;;;;;11.00;2.40;;;10.30;99.90;;;9.72;100.00;101997.78;4169924;28;20040;-72
2024/02/21 01:06:49;;;;;;;5.25;1.48;;;10.30;99.90;;;9.72;100.00;101978.50;4170603;28;20497;-72
2024/02/21 01:08:50;;;;;;;7.68;1.60;;;10.30;99.90;;;9.71;100.00;101990.00;4170929;28;20034;-72
2024/02/21 01:10:52;;;;;;;5.53;1.67;;;10.30;99.90;;;9.69;100.00;101976.94;4170786;28;20017;-72
2024/02/21 01:12:53;;;;;;;5.97;1.90;;;10.30;99.90;;;9.67;100.00;101968.34;4171749;28;20032;-72
2024/02/21 01:14:53;;;;;;;5.70;1.40;;;10.30;99.90;;;9.65;100.00;101970.25;4183377;28;20029;-72
2024/02/21 01:16:54;;;;;;;4.82;1.38;;;10.30;99.90;;;9.65;100.00;101962.34;4170720;28;20032;-72
2024/02/21 01:18:55;;;;;;;7.55;2.08;;;10.20;99.90;;;9.57;100.00;101933.13;4169534;28;20033;-72
2024/02/21 01:20:56;;;;;;;5.15;1.70;;;10.30;99.90;;;9.57;100.00;101930.50;4170801;28;20037;-72
2024/02/21 01:22:57;;;;;;;5.80;1.50;;;10.20;99.90;;;9.58;100.00;101933.97;4170502;28;20055;-72
2024/02/21 01:24:58;;;;;;;5.13;1.42;;;10.20;99.90;;;9.54;100.00;101928.09;4169641;28;20029;-72
2024/02/21 01:26:58;;;;;;;11.60;1.98;;;10.20;99.90;;;9.57;100.00;101924.38;4161328;28;20029;-72
2024/02/21 01:28:59;;;;;;;5.30;1.25;;;10.20;99.90;;;9.54;100.00;101914.09;4169297;28;20033;-72
2024/02/21 01:31:00;;;;;;;9.43;1.50;;;10.20;99.90;;;9.54;100.00;101935.16;4183956;28;20032;-72
2024/02/21 01:33:01;;;;;;;5.50;1.30;;;10.20;99.90;;;9.41;100.00;101927.38;4169566;28;20037;-72
2024/02/21 01:35:02;;;;;;;4.47;1.15;;;10.10;99.90;;;9.51;100.00;101938.88;4162232;28;20029;-72
2024/02/21 01:37:04;;;;;;;4.95;1.20;;;10.20;99.90;;;9.54;100.00;101943.06;4169343;28;20030;-72
2024/02/21 01:39:05;;;;;;;5.63;1.90;;;10.10;99.90;;;9.52;100.00;101939.72;4168940;28;20061;-72
2024/02/21 01:41:06;;;;;;;11.70;2.00;;;10.20;99.90;;;9.52;100.00;101932.66;4170239;28;20036;-72
2024/02/21 01:43:19;;;;;;;7.75;1.42;;;10.20;99.90;;;9.53;100.00;101928.22;4170603;28;20029;-72
2024/02/21 01:45:20;;;;;;;5.32;1.42;;;10.20;99.90;;;9.53;100.00;101917.69;4170329;28;20076;-72
2024/02/21 01:47:20;;;;;;;5.50;1.55;;;10.20;99.90;;;9.51;100.00;101923.06;4169891;28;20025;-73
2024/02/21 01:49:22;;;;;;;4.57;1.25;;;10.20;99.90;;;9.51;100.00;101920.44;4168066;28;20049;-73
2024/02/21 01:51:26;;;;;;;6.22;1.45;;;10.20;99.90;;;9.52;100.00;101901.06;4169135;28;20025;-72
2024/02/21 01:53:35;;;;;;;5.90;1.88;;;10.20;99.90;;;9.54;100.00;101912.28;4165754;28;20022;-72
2024/02/21 01:55:36;;;;;;;4.25;1.23;;;10.20;99.90;;;9.57;100.00;101919.13;4185472;28;20084;-73
2024/02/21 01:57:37;;;;;;;6.78;1.60;;;10.20;99.90;;;9.53;100.00;101905.34;4161159;28;20030;-73
2024/02/21 01:59:38;;;;;;;8.60;1.60;;;10.10;99.90;;;9.57;100.00;101909.41;4169042;28;20079;-72
2024/02/21 02:01:40;;;;;;;4.85;1.20;;;10.20;99.90;;;9.57;100.00;101908.56;4168771;28;20030;-73
2024/02/21 02:03:43;;;;;;;5.20;1.75;;;10.20;99.90;;;9.54;100.00;101898.28;4156304;28;20558;-73
2024/02/21 02:05:48;;;;;;;4.68;1.05;;;10.20;99.90;;;9.56;100.00;101897.19;4168924;28;20029;-73
2024/02/21 02:07:48;;;;;;;8.13;1.70;;;10.10;99.90;;;9.53;100.00;101896.63;4170043;28;20068;-72
2024/02/21 02:09:49;;;;;;;6.70;2.10;;;10.20;99.90;;;9.56;100.00;101885.84;4168557;28;20030;-72
2024/02/21 02:11:51;;;;;;;7.18;1.58;;;10.20;99.90;;;9.55;100.00;101885.00;4157598;28;20024;-72
2024/02/21 02:13:52;;;;;;;10.63;2.42;;;10.20;99.90;;;9.53;100.00;101875.56;4169649;28;20032;-72
2024/02/21 02:15:53;;;;;;;6.70;1.40;;;10.10;99.90;;;9.54;100.00;101870.16;4169884;28;20021;-72
2024/02/21 02:17:53;;;;;;;8.40;1.80;;;10.20;99.90;;;9.56;100.00;101870.03;4168540;28;20041;-73
2024/02/21 02:19:54;;;;;;;7.07;1.30;;;10.20;99.90;;;9.58;100.00;101863.69;4156914;28;20030;-72
2024/02/21 02:22:08;;;;;;;8.35;1.85;;;10.20;99.90;;;9.58;100.00;101858.41;4160312;28;20034;-73
2024/02/21 02:24:09;;;;;;;9.57;1.92;;;10.20;99.90;;;9.59;100.00;101848.72;4168679;28;20539;-73
2024/02/21 02:26:10;;;;;;;7.28;2.78;;;10.20;99.90;;;9.57;100.00;101835.66;4168419;28;20034;-73
2024/02/21 02:28:11;;;;;;;4.25;1.40;;;10.20;99.90;;;9.58;100.00;101832.09;4184750;28;20025;-73
2024/02/21 02:30:12;;;;;;;7.40;1.17;;;10.20;99.90;;;9.58;100.00;101821.53;4166562;28;20075;-73
2024/02/21 02:32:13;;;;;;;8.43;2.88;;;10.20;99.90;;;9.59;100.00;101823.19;4168142;28;20531;-73
2024/02/21 02:34:14;;;;;;;4.28;1.40;;;10.20;99.90;;;9.56;100.00;101804.19;4168319;28;20026;-72
2024/02/21 02:36:15;;;;;;;7.65;2.20;;;10.20;99.90;;;9.60;100.00;101816.13;4168607;28;20029;-73
2024/02/21 02:38:16;;;;;;;6.55;1.65;;;10.20;99.90;;;9.58;100.00;101821.53;4169583;28;20029;-73
2024/02/21 02:40:19;;;;;;;6.50;1.50;;;10.20;99.90;;;9.59;100.00;101807.38;4169482;28;20017;-73
2024/02/21 02:42:20;;;;;;;6.10;1.50;;;10.20;99.90;;;9.56;100.00;101786.56;4168208;28;20048;-73
2024/02/21 02:44:21;;;;;;;7.45;1.40;;;10.20;99.90;;;9.57;100.00;101777.72;4156931;28;20013;-73
2024/02/21 02:46:22;;;;;;;4.63;1.40;;;10.20;99.90;;;9.59;100.00;101778.41;4167836;28;20026;-73
2024/02/21 02:48:23;;;;;;;7.55;2.42;;;10.20;99.90;;;9.55;100.00;101776.16;4163288;28;20069;-73
2024/02/21 02:50:24;;;;;;;8.07;1.95;;;10.20;99.90;;;9.59;100.00;101769.72;4169268;28;20033;-73
2024/02/21 02:52:25;;;;;;;6.85;1.65;;;10.20;99.90;;;9.61;100.00;101751.97;4168258;28;20033;-73
2024/02/21 02:54:26;;;;;;;5.70;1.60;;;10.20;99.90;;;9.58;100.00;101758.31;4159694;28;20469;-72
2024/02/21 02:56:27;;;;;;;8.07;1.77;;;10.20;99.90;;;9.58;100.00;101747.78;4169241;28;20032;-73
2024/02/21 02:58:28;;;;;;;5.63;1.85;;;10.20;99.90;;;9.58;100.00;101752.22;4168670;28;20064;-72
2024/02/21 03:00:29;;;;;;;3.20;1.63;;;10.20;99.90;;;9.55;100.00;101755.94;4168860;28;20025;-73
2024/02/21 03:02:31;;;;;;;8.85;2.03;;;10.20;99.90;;;9.53;100.00;101746.50;4168047;28;20036;-72
2024/02/21 03:04:32;;;;;;;8.25;2.35;;;10.10;99.90;;;9.55;100.00;101747.19;4160945;28;20076;-72
2024/02/21 03:06:33;;;;;;;6.60;2.20;;;10.20;99.90;;;9.56;100.00;101747.06;4165247;28;20026;-73
2024/02/21 03:08:34;;;;;;;4.40;1.45;;;10.10;99.90;;;9.57;100.00;101726.81;4168878;28;20492;-72
2024/02/21 03:10:35;;;;;;;6.88;1.77;;;10.20;99.90;;;9.54;100.00;101714.75;4169200;28;20091;-73
2024/02/21 03:12:36;;;;;;;8.38;2.35;;;10.20;99.90;;;9.55;100.00;101719.06;4169143;28;20026;-72
2024/02/21 03:14:37;;;;;;;8.23;1.55;;;10.20;99.90;;;9.56;100.00;101704.09;4169769;28;20029;-72
2024/02/21 03:16:38;;;;;;;9.13;2.20;;;10.20;99.90;;;9.57;100.00;101709.22;4169537;28;20049;-72
2024/02/21 03:18:39;;;;;;;7.93;2.55;;;10.20;99.90;;;9.56;100.00;101712.81;4169027;28;20025;-73
2024/02/21 03:20:40;;;;;;;5.90;1.48;;;10.20;99.90;;;9.53;100.00;101697.25;4168906;28;20029;-73
2024/02/21 03:22:41;;;;;;;2.67;1.27;;;10.20;99.90;;;9.55;100.00;101690.09;4154964;28;20041;-72
2024/02/21 03:24:42;;;;;;;6.60;1.77;;;10.20;99.90;;;9.55;100.00;101695.34;4168207;28;20025;-73
2024/02/21 03:26:43;;;;;;;5.18;1.65;;;10.20;99.90;;;9.58;100.00;101716.19;4167772;28;20029;-72
2024/02/21 03:28:48;;;;;;;3.55;1.25;;;10.20;99.90;;;9.59;100.00;101715.19;4161730;28;20036;-73
2024/02/21 03:30:49;;;;;;;4.75;1.20;;;10.20;99.90;;;9.59;100.00;101696.75;4168582;28;20373;-72
2024/02/21 03:32:50;;;;;;;9.35;1.20;;;10.20;99.90;;;9.63;100.00;101711.38;4168842;28;20040;-73
2024/02/21 03:34:50;;;;;;;4.63;1.23;;;10.20;99.90;;;9.61;100.00;101713.28;4167675;28;20026;-73
2024/02/21 03:36:51;;;;;;;5.47;1.85;;;10.20;99.90;;;9.61;100.00;101705.38;4160719;28;20025;-73
2024/02/21 03:38:52;;;;;;;4.60;1.20;;;10.20;99.90;;;9.60;100.00;101687.91;4163702;28;20034;-73
2024/02/21 03:40:53;;;;;;;5.97;2.00;;;10.20;99.90;;;9.64;100.00;101685.84;4150966;28;20153;-73
2024/02/21 03:42:54;;;;;;;6.88;1.75;;;10.20;99.90;;;9.64;100.00;101681.44;4158127;28;20176;-73
2024/02/21 03:44:54;;;;;;;4.65;1.30;;;10.20;99.90;;;9.66;100.00;101686.56;4167336;28;20040;-72
2024/02/21 03:46:55;;;;;;;8.52;1.30;;;10.20;99.90;;;9.64;100.00;101693.75;4168438;28;20511;-73
2024/02/21 03:48:56;;;;;;;10.02;1.92;;;10.30;99.90;;;9.68;100.00;101680.19;4167166;28;20528;-73
2024/02/21 03:50:58;;;;;;;5.63;1.23;;;10.30;99.90;;;9.68;100.00;101676.72;4163031;28;20488;-73
2024/02/21 03:52:59;;;;;;;7.05;1.35;;;10.30;99.90;;;9.65;100.00;101672.53;4160923;28;20018;-73
2024/02/21 03:55:00;;;;;;;5.28;1.27;;;10.30;99.90;;;9.68;100.00;101682.00;4167431;28;20406;-73
2024/02/21 03:57:00;;;;;;;8.30;1.77;;;10.30;99.90;;;9.70;100.00;101694.09;4165951;28;20533;-73
2024/02/21 03:59:01;;;;;;;4.20;1.40;;;10.30;99.90;;;9.72;100.00;101671.09;4157391;28;20040;-73
2024/02/21 04:01:03;;;;;;;5.07;1.25;;;10.30;99.90;;;9.72;100.00;101681.63;4167105;28;20030;-72
2024/02/21 04:03:04;;;;;;;6.30;1.20;;;10.30;99.90;;;9.73;100.00;101685.94;4163716;28;20404;-72
2024/02/21 04:05:05;;;;;;;3.55;1.00;;;10.30;99.90;;;9.72;100.00;101678.16;4168362;28;20032;-72
2024/02/21 04:07:06;;;;;;;4.07;1.20;;;10.40;99.90;;;9.78;100.00;101682.91;4167327;28;20034;-72
2024/02/21 04:09:07;;;;;;;4.80;1.33;;;10.40;99.90;;;9.77;100.00;101658.34;4168586;28;20056;-72
2024/02/21 04:11:08;;;;;;;6.88;1.45;;;10.30;99.90;;;9.78;100.00;101660.03;4156610;28;20571;-72
2024/02/21 04:13:09;;;;;;;8.45;1.00;;;10.40;99.90;;;9.78;100.00;101653.91;4171706;28;20021;-72
2024/02/21 04:15:10;;;;;;;4.75;1.10;;;10.40;99.90;;;9.78;100.00;101659.19;4172077;28;20465;-72
2024/02/21 04:17:11;;;;;;;4.53;1.40;;;10.40;99.90;;;9.79;100.00;101652.97;4170564;28;20091;-72
2024/02/21 04:19:12;;;;;;;7.30;2.03;;;10.40;99.90;;;9.81;100.00;101659.78;4171774;28;20115;-72
2024/02/21 04:21:16;;;;;;;8.18;1.33;;;10.40;99.90;;;9.77;100.00;101663.63;4171552;28;20374;-72
2024/02/21 04:23:17;;;;;;;4.28;1.35;;;10.40;99.90;;;9.80;100.00;101651.97;4170128;28;20029;-72
2024/02/21 04:25:19;;;;;;;7.93;1.73;;;10.40;99.90;;;9.76;100.00;101656.69;4170019;28;20550;-72
2024/02/21 04:27:20;;;;;;;5.18;1.13;;;10.40;99.90;;;9.80;100.00;101647.56;4170412;28;20106;-72
2024/02/21 04:29:20;;;;;;;8.05;1.23;;;10.40;99.90;;;9.82;100.00;101661.47;4170070;28;20041;-72
2024/02/21 04:31:21;;;;;;;6.93;1.33;;;10.40;99.90;;;9.80;100.00;101665.16;4170194;28;20033;-72
2024/02/21 04:33:22;;;;;;;5.13;1.20;;;10.40;99.90;;;9.79;100.00;101650.34;4161369;28;20022;-72
2024/02/21 04:35:23;;;;;;;4.07;1.35;;;10.40;99.90;;;9.82;100.00;101658.81;4170436;28;20025;-72
2024/02/21 04:37:24;;;;;;;3.92;1.73;;;10.40;99.90;;;9.84;100.00;101654.25;4168486;28;20029;-72
2024/02/21 04:39:25;;;;;;;4.22;1.50;;;10.40;99.90;;;9.84;100.00;101641.06;4171513;28;20542;-73
2024/02/21 04:41:26;;;;;;;5.38;1.20;;;10.40;99.90;;;9.85;100.00;101663.00;4171317;28;20041;-72
2024/02/21 04:43:27;;;;;;;6.53;1.60;;;10.50;99.90;;;9.82;100.00;101644.81;4170286;28;20025;-73
2024/02/21 04:45:28;;;;;;;5.70;0.80;;;10.40;99.90;;;9.81;100.00;101649.25;4169816;28;20021;-72
2024/02/21 04:47:28;;;;;;;5.75;1.45;;;10.40;99.90;;;9.84;100.00;101650.78;4170305;28;20041;-72
2024/02/21 04:49:30;;;;;;;6.97;1.20;;;10.50;99.90;;;9.81;100.00;101638.69;4159527;28;20045;-72
2024/02/21 04:51:31;;;;;;;6.65;1.42;;;10.40;99.90;;;9.83;100.00;101635.91;4168974;28;20100;-72
2024/02/21 04:53:31;;;;;;;3.85;1.85;;;10.40;99.90;;;9.84;100.00;101637.59;4171386;28;20036;-72
2024/02/21 04:55:32;;;;;;;6.90;1.13;;;10.40;99.90;;;9.82;100.00;101632.47;4171208;28;20026;-72
2024/02/21 04:57:33;;;;;;;4.05;1.40;;;10.40;99.90;;;9.83;100.00;101628.84;4171179;28;20029;-72
2024/02/21 04:59:35;;;;;;;5.82;1.77;;;10.50;99.90;;;9.83;100.00;101636.75;4170043;28;20025;-72
2024/02/21 05:01:35;;;;;;;2.78;1.17;;;10.40;99.90;;;9.84;100.00;101625.25;4170351;28;20026;-72
2024/02/21 05:03:38;;;;;;;5.55;1.83;;;10.50;99.90;;;9.82;100.00;101619.28;4169942;28;20036;-73
2024/02/21 05:05:39;;;;;;;6.22;1.60;;;10.40;99.90;;;9.79;100.00;101613.44;4159077;28;20160;-72
2024/02/21 05:07:40;;;;;;;6.00;1.58;;;10.40;99.90;;;9.84;100.00;101620.00;4163398;28;20037;-72
2024/02/21 05:09:42;;;;;;;7.50;1.40;;;10.50;99.90;;;9.85;100.00;101608.50;4169550;28;20033;-72
2024/02/21 05:11:43;;;;;;;6.50;2.25;;;10.50;99.90;;;9.86;100.00;101601.41;4170982;28;20573;-72
2024/02/21 05:13:44;;;;;;;3.58;0.90;;;10.50;99.90;;;9.81;100.00;101587.78;4169891;28;20025;-72
2024/02/21 05:15:45;;;;;;;5.10;1.38;;;10.50;99.90;;;9.88;100.00;101599.50;4153366;28;20420;-73
2024/02/21 05:17:46;;;;;;;5.03;1.38;;;10.50;99.90;;;9.87;100.00;101596.00;4170879;28;20022;-72
2024/02/21 05:19:47;;;;;;;3.92;1.60;;;10.50;99.90;;;9.84;100.00;101585.75;4170582;28;20033;-72
2024/02/21 05:21:47;;;;;;;5.30;1.10;;;10.50;99.90;;;9.86;100.00;101589.06;4171186;28;20049;-72
2024/02/21 05:23:48;;;;;;;7.93;1.20;;;10.50;99.90;;;9.88;100.00;101578.41;4175676;28;20032;-72
2024/02/21 05:25:49;;;;;;;4.53;1.15;;;10.50;99.90;;;9.88;100.00;101565.22;4170686;28;20074;-72
2024/02/21 05:27:53;;;;;;;7.97;1.35;;;10.50;99.90;;;9.90;100.00;101566.75;4169265;28;20083;-72
2024/02/21 05:29:54;;;;;;;5.05;1.63;;;10.50;99.90;;;9.92;100.00;101571.88;4169469;28;20029;-72
2024/02/21 05:31:57;;;;;;;5.38;1.20;;;10.50;99.90;;;9.87;100.00;101553.84;4170528;28;20021;-73
2024/02/21 05:33:58;;;;;;;3.50;1.20;;;10.50;99.90;;;9.91;100.00;101536.81;4169576;28;20029;-72
2024/02/21 05:35:59;;;;;;;8.45;1.50;;;10.50;99.90;;;9.86;100.00;101541.63;4169190;28;20543;-72
2024/02/21 05:38:00;;;;;;;4.10;1.75;;;10.50;99.90;;;9.93;100.00;101548.06;4169509;28;20504;-72
2024/02/21 05:40:00;;;;;;;4.28;1.17;;;10.50;99.90;;;9.90;100.00;101529.88;4170477;28;20033;-72
2024/02/21 05:42:01;;;;;;;2.92;1.17;;;10.50;99.90;;;9.93;100.00;101526.13;4152813;28;20030;-72
2024/02/21 05:44:02;;;;;;;6.55;1.85;;;10.60;99.90;;;9.87;100.00;101516.97;4185597;28;20428;-72
2024/02/21 05:46:03;;;;;;;8.07;1.08;;;10.50;99.90;;;9.95;100.00;101525.03;4170120;28;20101;-72
2024/02/21 05:48:05;;;;;;;6.05;2.00;;;10.60;99.90;;;9.95;100.00;101516.28;4170146;28;20065;-73
2024/02/21 05:50:06;;;;;;;4.40;0.85;;;10.60;99.90;;;9.94;100.00;101522.53;4169045;28;20041;-73
2024/02/21 05:52:07;;;;;;;8.05;1.30;;;10.60;99.90;;;9.98;100.00;101516.84;4152895;28;20022;-73
2024/02/21 05:54:08;;;;;;;9.35;1.30;;;10.60;99.90;;;10.03;100.00;101533.09;4158323;28;20542;-73
2024/02/21 05:56:12;;;;;;;5.55;1.13;;;10.60;99.90;;;10.02;100.00;101518.28;4170319;28;20026;-73
2024/02/21 05:58:13;;;;;;;6.55;1.98;;;10.70;99.90;;;10.03;100.00;101517.28;4169171;28;20443;-72
2024/02/21 06:00:15;;;;;;;4.72;1.10;;;10.60;99.90;;;10.01;100.00;101511.31;4168059;28;20053;-72
2024/02/21 06:02:16;;;;;;;4.13;1.10;;;10.70;99.90;;;10.05;100.00;101511.03;4169058;28;20170;-73
2024/02/21 06:04:17;;;;;;;4.80;1.15;;;10.60;99.90;;;10.07;100.00;101499.41;4161529;28;20026;-72
2024/02/21 06:06:18;;;;;;;4.00;1.48;;;10.70;99.90;;;10.09;100.00;101499.28;4170074;28;20555;-73
2024/02/21 06:08:18;;;;;;;7.22;1.60;;;10.70;99.90;;;10.09;100.00;101499.28;4170006;28;20017;-73
2024/02/21 06:10:19;;;;;;;5.20;1.17;;;10.70;99.90;;;10.06;100.00;101491.63;4170204;28;20021;-72
2024/02/21 06:12:20;;;;;;;10.75;2.17;;;10.70;99.90;;;10.09;100.00;101484.31;4168983;28;20481;-72
2024/02/21 06:14:21;;;;;;;4.75;2.05;;;10.70;99.90;;;10.11;100.00;101485.00;4163930;28;20033;-73
2024/02/21 06:16:22;;;;;;;8.52;1.10;;;10.70;99.90;;;10.11;100.00;101492.06;4168566;28;20021;-73
2024/02/21 06:18:23;;;;;;;4.75;1.52;;;10.70;99.90;;;10.14;100.00;101484.75;4156781;28;20080;-72
2024/02/21 06:20:23;;;;;;;7.80;1.60;;;10.70;99.90;;;10.13;100.00;101480.44;4169793;28;20092;-73
2024/02/21 06:22:24;;;;;;;13.68;3.13;;;10.80;99.90;;;10.13;100.00;101469.03;4169798;28;20032;-72
2024/02/21 06:24:25;;;;;;;6.00;1.83;;;10.80;99.90;;;10.19;100.00;101472.00;4168094;28;20025;-73
2024/02/21 06:26:26;;;;;;;11.63;2.03;;;10.80;99.90;;;10.17;100.00;101460.75;4169808;28;20436;-73
2024/02/21 06:28:27;;;;;;;4.90;2.00;;;10.80;99.90;;;10.18;100.00;101462.44;4169665;28;20022;-72
2024/02/21 06:30:28;;;;;;;6.28;1.58;;;10.80;99.90;;;10.19;100.00;101457.97;4168208;28;20018;-72
2024/02/21 06:32:29;;;;;;;8.88;3.05;;;10.80;99.90;;;10.20;100.00;101472.84;4168071;28;20020;-72
2024/02/21 06:34:31;;;;;;;10.73;1.50;;;10.80;99.90;;;10.23;100.00;101454.09;4156546;28;20021;-73
2024/02/21 06:36:32;;;;;;;9.05;1.73;;;10.80;99.90;;;10.18;100.00;101457.16;4169611;28;20025;-73
2024/02/21 06:38:33;;;;;;;6.78;1.70;;;10.80;99.90;;;10.18;100.00;101458.97;4168532;28;20021;-73
2024/02/21 06:40:38;;;;;;;9.43;1.83;;;10.80;99.90;;;10.20;100.00;101455.22;4169361;28;20025;-72
2024/02/21 06:42:39;;;;;;;12.45;3.03;;;10.80;99.90;;;10.22;100.00;101447.16;4169600;28;20106;-73
2024/02/21 06:44:40;;;;;;;13.57;2.22;;;10.80;99.90;;;10.22;100.00;101461.19;4151899;28;20493;-72
2024/02/21 06:46:41;;;;;;;10.63;1.67;;;10.80;99.90;;;10.25;100.00;101452.16;4169041;28;20539;-72
2024/02/21 06:48:42;;;;;;;14.98;2.55;;;10.80;99.90;;;10.27;100.00;101458.16;4169328;28;20405;-72
2024/02/21 06:50:42;;;;;;;7.13;2.42;;;10.80;99.90;;;10.26;100.00;101453.81;4167995;28;20424;-73
2024/02/21 06:52:43;;;;;;;11.27;2.40;;;10.90;99.90;;;10.28;100.00;101451.88;4157692;28;20436;-73
2024/02/21 06:54:44;;;;;;;8.32;2.25;;;10.90;99.90;;;10.26;100.00;101443.28;4161972;28;20025;-74
2024/02/21 06:56:45;;;;;;;10.13;2.30;;;10.90;99.90;;;10.27;100.00;101443.16;4168189;28;20025;-73
2024/02/21 06:58:46;;;;;;;7.85;2.03;;;10.90;99.90;;;10.27;100.00;101437.06;4183144;28;20024;-72
2024/02/21 07:00:47;;;;;;;8.18;2.53;;;10.90;99.90;;;10.27;100.00;101437.06;4158981;28;20516;-73
2024/02/21 07:02:48;;;;;;;14.63;2.33;;;10.90;99.90;;;10.27;100.00;101437.06;4169259;28;20063;-73
2024/02/21 07:04:49;;;;;;;9.55;2.40;;;10.90;99.90;;;10.33;100.00;101450.53;4167985;28;20444;-73
2024/02/21 07:06:50;;;;;;;11.18;2.60;;;10.90;99.90;;;10.35;100.00;101442.47;4167544;28;20033;-73
2024/02/21 07:08:51;;;;;;;13.25;2.33;;;10.90;99.90;;;10.39;100.00;101449.13;4167908;28;20057;-73
2024/02/21 07:10:52;;;;;;;14.32;3.30;;;11.00;99.90;;;10.39;100.00;101449.94;4160967;28;20014;-73
2024/02/21 07:12:53;;;;;;;10.30;2.35;;;11.00;99.90;;;10.38;100.00;101437.75;4169008;28;20017;-72
2024/02/21 07:14:54;;;;;;;11.32;2.65;;;11.00;99.90;;;10.41;100.00;101434.84;4167774;28;20037;-73
2024/02/21 07:16:56;;;;;;;13.20;2.95;;;11.00;99.90;;;10.44;100.00;101433.72;4157085;28;20030;-72
2024/02/21 07:18:58;;;;;;;9.52;2.70;;;11.00;99.90;;;10.44;100.00;101424.00;4168665;28;20037;-73
2024/02/21 07:20:58;;;;;;;9.82;2.58;;;11.00;99.90;;;10.41;100.00;101421.66;4168928;28;20025;-73
2024/02/21 07:23:00;;;;;;;11.90;2.80;;;11.00;99.90;;;10.43;100.00;101414.44;4168803;28;20036;-73
2024/02/21 07:25:00;;;;;;;15.43;3.85;;;11.00;99.90;;;10.43;100.00;101411.78;4169102;28;20093;-73
2024/02/21 07:27:04;;;;;;;13.43;2.88;;;11.10;99.90;;;10.41;100.00;101390.00;4151291;28;20033;-73
2024/02/21 07:29:05;;;;;;;10.60;3.43;;;11.10;99.90;;;10.38;100.00;101408.75;4169885;28;20025;-72
2024/02/21 07:31:05;;;;;;;21.67;4.03;;;11.00;99.90;;;10.41;100.00;101405.00;4168158;28;20025;-73
2024/02/21 07:33:07;;;;;;;19.08;3.58;;;11.00;99.90;;;10.45;100.00;101409.84;4167661;28;20052;-73
2024/02/21 07:35:11;;;;;;;19.00;3.03;;;11.00;99.90;;;10.45;100.00;101401.91;4159487;28;20068;-73
2024/02/21 07:37:12;;;;;;;14.68;3.22;;;11.10;99.90;;;10.49;100.00;101411.22;4163311;28;20401;-74
2024/02/21 07:39:13;;;;;;;14.40;3.78;;;11.10;99.90;;;10.55;100.00;101412.47;4167622;28;20036;-73
2024/02/21 07:41:14;;;;;;;8.13;3.03;;;11.10;99.90;;;10.55;100.00;101408.03;4168633;28;20447;-73
2024/02/21 07:43:15;;;;;;;8.25;3.42;;;11.20;99.90;;;10.59;100.00;101413.88;4168672;28;20025;-72
2024/02/21 07:45:16;;;;;;;14.75;3.92;;;11.20;99.90;;;10.58;100.00;101417.47;4166915;28;20100;-73
2024/02/21 07:47:18;;;;;;;14.80;4.45;;;11.20;99.90;;;10.60;100.00;101420.00;4165470;28;20022;-73
2024/02/21 07:49:19;;;;;;;15.00;3.03;;;11.20;99.90;;;10.66;100.00;101428.19;4167292;28;20509;-73
2024/02/21 07:51:20;;;;;;;10.80;3.20;;;11.20;99.90;;;10.66;100.00;101430.81;4167398;28;20018;-72
2024/02/21 07:53:21;;;;;;;7.80;2.63;;;11.30;99.90;;;10.66;100.00;101425.53;4161684;28;20083;-73
2024/02/21 07:55:22;;;;;;;10.93;3.40;;;11.30;99.90;;;10.73;100.00;101425.78;4183910;28;20091;-73
2024/02/21 07:57:23;;;;;;;15.20;2.83;;;11.30;99.90;;;10.73;100.00;101428.44;4156587;28;20029;-72
2024/02/21 07:59:24;;;;;;;16.73;3.40;;;11.30;99.90;;;10.72;100.00;101424.97;4168845;28;20523;-72
2024/02/21 08:01:25;;;;;;;15.73;3.67;;;11.30;99.90;;;10.76;100.00;101423.72;4168277;28;20055;-72
2024/02/21 08:03:26;;;;;;;19.30;3.88;;;11.30;99.90;;;10.77;100.00;101429.81;4168446;28;20493;-72
2024/02/21 08:05:26;;;;;;;11.00;2.70;;;11.40;99.90;;;10.79;100.00;101422.59;4168606;28;20401;-72
2024/02/21 08:07:28;;;;;;;10.10;3.67;;;11.40;99.90;;;10.84;100.00;101434.38;4168578;28;20400;-72
2024/02/21 08:09:30;;;;;;;13.95;4.43;;;11.40;99.90;;;10.87;100.00;101426.19;4168441;28;20026;-72
2024/02/21 08:11:30;;;;;;;13.23;3.30;;;11.40;99.90;;;10.85;100.00;101414.13;4168406;28;20029;-72
2024/02/21 08:13:31;;;;;;;12.43;4.32;;;11.40;99.90;;;10.89;100.00;101416.34;4167717;28;20021;-72
2024/02/21 08:15:33;;;;;;;11.43;3.42;;;11.40;99.90;;;10.88;100.00;101414.66;4158927;28;20017;-72
2024/02/21 08:17:34;;;;;;;12.15;4.00;;;11.50;99.90;;;10.90;100.00;101401.34;4168601;28;20030;-72
2024/02/21 08:19:35;;;;;;;12.65;3.45;;;11.50;99.90;;;10.93;100.00;101407.16;4168429;28;20396;-72
2024/02/21 08:21:36;;;;;;;12.48;2.92;;;11.50;99.90;;;10.95;100.00;101410.50;4167124;28;20052;-72